Time;durP1;ratioP1;P1;durP2;ratioP2;P2;SDS_P1;SDS_P2;PMS_P1;PMS_P2;Temp;Humidity;BMP_temperature;BMP_pressure;BME280_temperature;BME280_humidity;BME280_pressure;Samples;Min_cycle;Max_cycle;Signal;HPM_P1;HPM_P2
2022/07/12 00:01:50;;;;;;;3.17;1.30;;;;;;;17.10;72.70;101262.69;5049284;28;20053;-57
2022/07/12 00:04:20;;;;;;;2.65;1.20;;;;;;;17.09;72.65;101260.97;5067629;28;20053;-58
2022/07/12 00:06:48;;;;;;;3.28;1.10;;;;;;;17.09;72.63;101260.97;5069258;28;20455;-57
2022/07/12 00:09:18;;;;;;;2.10;1.00;;;;;;;17.07;72.73;101257.53;5069824;28;20123;-58
2022/07/12 00:11:49;;;;;;;2.50;1.27;;;;;;;17.04;72.95;101259.34;5065612;28;20677;-58
2022/07/12 00:14:20;;;;;;;2.25;1.10;;;;;;;17.01;72.98;101256.81;5065466;28;20140;-57
2022/07/12 00:16:51;;;;;;;3.42;1.40;;;;;;;17.02;73.04;101258.53;5073219;28;20131;-58
2022/07/12 00:19:17;;;;;;;5.30;1.30;;;;;;;17.04;72.99;101254.09;5062465;28;20141;-58
2022/07/12 00:21:46;;;;;;;3.33;1.05;;;;;;;17.01;72.98;101248.97;5052963;28;20060;-58
2022/07/12 00:24:18;;;;;;;2.47;1.13;;;;;;;17.02;73.07;101248.06;5053776;28;20049;-58
2022/07/12 00:26:46;;;;;;;1.55;1.10;;;;;;;17.03;73.06;101247.16;5055890;28;20048;-57
2022/07/12 00:29:14;;;;;;;1.75;1.10;;;;;;;17.04;73.22;101248.88;5063093;28;20118;-58
2022/07/12 00:31:44;;;;;;;1.27;1.00;;;;;;;17.03;73.14;101249.78;5071813;28;20045;-58
2022/07/12 00:36:55;;;;;;;2.58;1.30;;;;;;;16.97;73.34;101244.69;5074617;28;20052;-57
2022/07/12 00:39:31;;;;;;;1.83;1.20;;;;;;;16.94;73.58;101252.63;5075755;28;20059;-58
2022/07/12 00:42:01;;;;;;;3.97;1.10;;;;;;;16.91;73.54;101250.09;5076103;28;20041;-58
2022/07/12 00:44:33;;;;;;;3.33;1.38;;;;;;;16.89;73.54;101253.66;5075998;28;20052;-58
2022/07/12 00:47:04;;;;;;;1.83;1.20;;;;;;;16.88;73.86;101258.03;5072972;28;20048;-58
2022/07/12 00:49:32;;;;;;;2.33;1.40;;;;;;;16.88;73.83;101258.03;5075320;28;20056;-58
2022/07/12 00:52:01;;;;;;;4.30;1.20;;;;;;;16.84;73.91;101251.16;5075297;28;20044;-54
2022/07/12 00:54:31;;;;;;;2.08;1.48;;;;;;;16.83;73.81;101254.69;5075403;28;20048;-58
2022/07/12 00:57:07;;;;;;;4.45;1.60;;;;;;;16.79;73.93;101254.81;5075456;28;20048;-57
2022/07/12 00:59:34;;;;;;;2.55;1.30;;;;;;;16.74;74.15;101249.69;5075330;28;20052;-58
2022/07/12 01:04:46;;;;;;;2.83;1.25;;;;;;;16.73;74.19;101258.44;5072573;28;20066;-58
2022/07/12 01:07:16;;;;;;;1.80;1.13;;;;;;;16.72;74.39;101254.09;5075528;28;20044;-58
2022/07/12 01:09:51;;;;;;;2.72;1.20;;;;;;;16.73;74.20;101253.22;5075297;28;20071;-57
2022/07/12 01:12:19;;;;;;;4.03;1.60;;;;;;;16.71;74.40;101249.75;5075450;28;20398;-58
2022/07/12 01:14:48;;;;;;;2.47;1.20;;;;;;;16.70;74.76;101253.28;5075339;28;20049;-58
2022/07/12 01:17:15;;;;;;;2.45;1.30;;;;;;;16.70;74.66;101248.06;5075188;28;20123;-57
2022/07/12 01:19:44;;;;;;;2.75;1.40;;;;;;;16.67;74.74;101248.13;5072538;28;20056;-57
2022/07/12 01:22:15;;;;;;;2.63;1.33;;;;;;;16.66;74.82;101251.66;5074283;28;20066;-58
2022/07/12 01:24:46;;;;;;;2.95;1.20;;;;;;;16.66;74.93;101249.03;5072198;28;20064;-57
2022/07/12 01:27:21;;;;;;;3.28;1.42;;;;;;;16.67;74.84;101248.13;5073901;28;20075;-58
2022/07/12 01:29:51;;;;;;;3.08;1.30;;;;;;;16.65;75.21;101255.13;5073383;28;20041;-58
2022/07/12 01:32:28;;;;;;;10.38;1.70;;;;;;;16.62;74.94;101239.47;5074828;28;20045;-58
2022/07/12 01:34:59;;;;;;;2.80;1.38;;;;;;;16.58;75.27;101238.69;5075026;28;20040;-58
2022/07/12 01:37:29;;;;;;;2.40;1.50;;;;;;;16.57;75.38;101241.34;5073672;28;20445;-58
2022/07/12 01:39:59;;;;;;;2.90;1.40;;;;;;;16.57;75.53;101236.97;5075582;28;20048;-58
2022/07/12 01:42:29;;;;;;;2.33;1.40;;;;;;;16.55;75.58;101244.00;5072358;28;20292;-58
2022/07/12 01:44:59;;;;;;;4.03;1.70;;;;;;;16.56;75.77;101239.63;5074492;28;20053;-58
2022/07/12 01:47:31;;;;;;;2.42;1.20;;;;;;;16.54;75.63;101242.28;5073827;28;20044;-58
2022/07/12 01:50:02;;;;;;;2.90;1.55;;;;;;;16.54;75.79;101236.19;5074194;28;20040;-58
2022/07/12 01:52:30;;;;;;;2.22;1.15;;;;;;;16.54;75.70;101238.81;5073866;28;20102;-58
2022/07/12 01:55:14;;;;;;;2.45;1.45;;;;;;;16.54;75.86;101241.41;5070984;28;20056;-58
2022/07/12 01:57:46;;;;;;;2.95;1.65;;;;;;;16.52;75.98;101237.97;5074473;28;20127;-58
2022/07/12 02:00:15;;;;;;;2.15;1.50;;;;;;;16.51;75.85;101241.50;5074248;28;20051;-58
2022/07/12 02:02:46;;;;;;;4.05;1.65;;;;;;;16.49;76.09;101233.69;5071759;28;20055;-58
2022/07/12 02:05:12;;;;;;;1.90;1.23;;;;;;;16.50;76.01;101240.63;5073489;28;20497;-58
2022/07/12 02:07:41;;;;;;;3.00;1.70;;;;;;;16.49;76.31;101241.53;5074015;28;20049;-57
2022/07/12 02:10:23;;;;;;;4.22;1.33;;;;;;;16.50;76.33;101235.41;5073734;28;20041;-58
2022/07/12 02:13:04;;;;;;;3.70;1.48;;;;;;;16.49;76.28;101243.28;5072254;28;20045;-58
2022/07/12 02:15:35;;;;;;;2.92;1.35;;;;;;;16.47;76.25;101253.81;5072612;28;20121;-58
2022/07/12 02:18:03;;;;;;;2.97;1.70;;;;;;;16.47;76.42;101239.84;5070825;28;20059;-58
2022/07/12 02:20:31;;;;;;;2.70;1.20;;;;;;;16.48;76.41;101238.97;5071577;28;20380;-58
2022/07/12 02:23:01;;;;;;;3.33;1.75;;;;;;;16.50;76.77;101234.53;5072639;28;20075;-57
2022/07/12 02:25:32;;;;;;;3.42;1.60;;;;;;;16.48;76.44;101231.09;5073876;28;20107;-58
2022/07/12 02:28:01;;;;;;;3.17;1.65;;;;;;;16.48;76.79;101237.19;5073575;28;20052;-58
2022/07/12 02:30:27;;;;;;;4.53;1.80;;;;;;;16.48;76.78;101225.88;5069658;28;20052;-58
2022/07/12 02:32:55;;;;;;;3.97;1.60;;;;;;;16.48;76.62;101225.88;5065674;28;20058;-58
2022/07/12 02:35:25;;;;;;;2.63;1.48;;;;;;;16.48;76.68;101224.13;5070127;28;20079;-58
2022/07/12 02:37:53;;;;;;;2.75;1.25;;;;;;;16.49;76.97;101227.59;5074027;28;20106;-58
2022/07/12 02:43:14;;;;;;;2.20;1.50;;;;;;;16.51;76.74;101221.44;5071628;28;20105;-57
2022/07/12 02:45:42;;;;;;;2.40;1.25;;;;;;;16.49;76.85;101220.59;5063668;28;20493;-57
2022/07/12 02:48:12;;;;;;;2.38;1.50;;;;;;;16.50;76.98;101224.06;5067523;28;20473;-56
2022/07/12 02:50:42;;;;;;;8.70;1.88;;;;;;;16.48;77.26;101220.66;5073237;28;20045;-58
2022/07/12 02:53:11;;;;;;;1.75;1.30;;;;;;;16.48;76.96;101211.03;5072631;28;20052;-58
2022/07/12 02:55:39;;;;;;;3.25;1.85;;;;;;;16.49;77.04;101219.75;5071485;28;20074;-56
2022/07/12 02:58:11;;;;;;;4.03;1.40;;;;;;;16.50;76.98;101218.84;5070696;28;20048;-58
2022/07/12 03:00:41;;;;;;;1.80;1.45;;;;;;;16.50;77.15;101208.38;5071173;28;20052;-58
2022/07/12 03:03:10;;;;;;;2.38;1.30;;;;;;;16.53;77.14;101210.91;5073282;28;20080;-58
2022/07/12 03:05:41;;;;;;;3.58;1.77;;;;;;;16.55;77.13;101212.59;5070899;28;20067;-58
2022/07/12 03:08:11;;;;;;;4.00;1.35;;;;;;;16.59;77.30;101218.59;5072842;28;20049;-56
2022/07/12 03:10:41;;;;;;;3.83;1.67;;;;;;;16.63;77.24;101209.78;5071302;28;20052;-57
2022/07/12 03:13:14;;;;;;;3.30;1.50;;;;;;;16.68;77.02;101213.19;5073052;28;20052;-57
2022/07/12 03:15:45;;;;;;;2.97;1.50;;;;;;;16.71;77.38;101213.13;5071430;28;20338;-58
2022/07/12 03:18:16;;;;;;;2.58;1.52;;;;;;;16.78;77.31;101209.44;5073598;28;20052;-58
2022/07/12 03:20:48;;;;;;;3.67;1.38;;;;;;;16.83;77.07;101207.56;5073244;28;20056;-56
2022/07/12 03:23:18;;;;;;;4.97;1.67;;;;;;;16.89;77.14;101212.63;5072837;28;20060;-57
2022/07/12 03:25:57;;;;;;;2.95;1.15;;;;;;;16.97;77.02;101194.94;5072028;28;20053;-58
2022/07/12 03:28:37;;;;;;;4.60;1.30;;;;;;;17.08;76.77;101205.13;5071961;28;20057;-58
2022/07/12 03:31:07;;;;;;;7.97;1.52;;;;;;;17.17;76.78;101204.88;5071656;28;20558;-57
2022/07/12 03:33:38;;;;;;;3.42;1.40;;;;;;;17.26;76.64;101212.50;5070895;28;20052;-57
2022/07/12 03:36:09;;;;;;;3.70;1.38;;;;;;;17.36;76.32;101202.59;5073581;28;20044;-58
2022/07/12 03:38:39;;;;;;;2.45;1.50;;;;;;;17.47;76.35;101200.53;5074720;28;20113;-57
2022/07/12 03:41:09;;;;;;;3.92;1.63;;;;;;;17.60;75.81;101196.63;5073856;28;20051;-58
2022/07/12 03:43:49;;;;;;;2.55;1.40;;;;;;;17.75;75.39;101215.47;5071948;28;20437;-58
2022/07/12 03:46:19;;;;;;;7.22;1.73;;;;;;;17.87;75.20;101199.34;5071213;28;20053;-57
2022/07/12 03:48:48;;;;;;;2.40;1.40;;;;;;;18.01;74.88;101206.78;5073807;28;20108;-58
2022/07/12 03:51:18;;;;;;;3.33;1.20;;;;;;;18.14;74.50;101208.97;5071122;28;20122;-58
2022/07/12 03:53:46;;;;;;;5.47;1.30;;;;;;;18.28;74.04;101206.78;5073909;28;20052;-58
2022/07/12 03:57:13;;;;;;;3.22;1.10;;;;;;;18.43;73.80;101208.03;5073851;28;20048;-58
2022/07/12 03:59:06;;;;;;;2.45;1.20;;;;;;;18.62;73.37;101205.69;5071814;28;20453;-58
2022/07/12 04:01:36;;;;;;;6.45;1.38;;;;;;;18.80;72.84;101202.44;5073436;28;20052;-58
2022/07/12 04:04:03;;;;;;;2.65;1.27;;;;;;;18.99;72.33;101196.53;5075100;28;20060;-58
2022/07/12 04:06:31;;;;;;;4.60;1.10;;;;;;;19.17;71.82;101187.97;5076694;28;20119;-58
2022/07/12 04:08:57;;;;;;;4.90;1.05;;;;;;;19.35;71.30;101189.94;5076910;28;20059;-58
2022/07/12 04:11:28;;;;;;;5.07;1.50;;;;;;;19.53;70.67;101181.38;5076479;28;20055;-58
2022/07/12 04:13:55;;;;;;;2.00;1.20;;;;;;;19.73;70.12;101177.97;5075007;28;20067;-58
2022/07/12 04:16:30;;;;;;;5.05;1.30;;;;;;;19.95;69.60;101193.78;5076880;28;20045;-57
2022/07/12 04:18:58;;;;;;;2.78;0.90;;;;;;;20.12;68.90;101179.94;5074306;28;20113;-56
2022/07/12 04:21:27;;;;;;;3.58;1.40;;;;;;;20.31;68.57;101190.59;5075861;28;20426;-58
2022/07/12 04:23:57;;;;;;;2.33;0.80;;;;;;;20.50;67.86;101188.94;5073831;28;20049;-58
2022/07/12 04:26:25;;;;;;;4.00;1.00;;;;;;;20.66;67.30;101187.34;5075701;28;20407;-58
2022/07/12 04:28:55;;;;;;;2.45;1.00;;;;;;;20.85;66.72;101181.31;5076308;28;20052;-58
2022/07/12 04:31:23;;;;;;;2.17;0.70;;;;;;;21.05;66.19;101173.38;5076078;28;20044;-58
2022/07/12 04:34:00;;;;;;;6.38;1.02;;;;;;;21.26;65.64;101182.97;5075790;28;20063;-58
2022/07/12 04:36:28;;;;;;;4.68;1.00;;;;;;;21.45;65.12;101180.34;5074866;28;20131;-57
2022/07/12 04:38:55;;;;;;;2.20;0.77;;;;;;;21.63;64.45;101171.56;5073743;28;20052;-58
2022/07/12 04:41:24;;;;;;;5.03;0.90;;;;;;;21.80;64.18;101168.13;5075299;28;20044;-58
2022/07/12 04:43:54;;;;;;;1.75;0.82;;;;;;;21.98;63.63;101172.53;5075509;28;20055;-57
2022/07/12 04:46:24;;;;;;;2.70;1.10;;;;;;;22.17;63.14;101174.31;5075266;28;20048;-56
2022/07/12 04:49:06;;;;;;;4.65;1.17;;;;;;;22.33;62.39;101172.59;5074941;28;20048;-57
2022/07/12 04:51:35;;;;;;;3.33;0.80;;;;;;;;;;5075048;28;20044;-57
2022/07/12 04:54:08;;;;;;;3.58;1.08;;;;;;;22.67;61.69;101171.75;5075029;28;20106;-57
2022/07/12 04:56:38;;;;;;;2.50;0.93;;;;;;;22.85;61.24;101172.59;5072200;28;20139;-57
2022/07/12 04:59:06;;;;;;;1.88;0.70;;;;;;;22.99;60.73;101162.19;5074928;28;20152;-58
2022/07/12 05:01:35;;;;;;;3.63;1.05;;;;;;;23.08;60.14;101161.69;5074596;28;20460;-58
2022/07/12 05:04:08;;;;;;;5.30;1.25;;;;;;;23.20;59.81;101171.59;5074894;28;20048;-57
2022/07/12 05:06:39;;;;;;;5.20;0.65;;;;;;;23.33;59.76;101166.50;5072236;28;20060;-58
2022/07/12 05:09:07;;;;;;;4.30;0.70;;;;;;;23.44;59.37;101173.88;5074817;28;20088;-58
2022/07/12 05:11:37;;;;;;;7.22;0.82;;;;;;;23.58;58.82;101172.19;5074663;28;20052;-58
2022/07/12 05:14:07;;;;;;;3.40;0.60;;;;;;;23.72;58.45;101173.22;5074536;28;20131;-58
2022/07/12 05:16:35;;;;;;;2.10;0.50;;;;;;;23.85;58.15;101177.72;5074503;28;20056;-58
2022/07/12 05:19:05;;;;;;;2.05;0.50;;;;;;;24.00;57.69;101175.16;5074480;28;20105;-58
2022/07/12 05:21:34;;;;;;;2.38;0.70;;;;;;;24.15;57.47;101171.63;5074017;28;20092;-57
2022/07/12 05:24:03;;;;;;;2.97;0.80;;;;;;;24.32;56.78;101174.19;5074483;28;20079;-58
2022/07/12 05:26:33;;;;;;;1.42;0.50;;;;;;;24.47;56.29;101181.25;5074294;28;20045;-58
2022/07/12 05:29:04;;;;;;;2.08;0.68;;;;;;;24.63;55.92;101180.31;5074546;28;20044;-58
2022/07/12 05:31:35;;;;;;;1.48;0.70;;;;;;;24.76;55.46;101178.63;5074386;28;20059;-58
2022/07/12 05:34:11;;;;;;;0.90;0.50;;;;;;;24.92;55.38;101179.41;5073921;28;20487;-58
2022/07/12 05:36:38;;;;;;;2.78;0.70;;;;;;;25.10;54.42;101177.47;5071762;28;20055;-56
2022/07/12 05:39:06;;;;;;;1.73;0.40;;;;;;;25.24;53.55;101176.59;5076131;28;20052;-58
2022/07/12 05:41:34;;;;;;;2.63;0.68;;;;;;;25.30;53.13;101173.56;5073573;28;20056;-57
2022/07/12 05:44:04;;;;;;;2.53;0.70;;;;;;;25.37;52.61;101174.88;5073569;28;20355;-57
2022/07/12 05:46:33;;;;;;;5.13;0.80;;;;;;;25.42;52.37;101175.44;5073844;28;20055;-58
2022/07/12 05:49:11;;;;;;;2.42;0.40;;;;;;;25.50;52.39;101175.84;5074042;28;20044;-58
2022/07/12 05:54:32;;;;;;;1.13;0.57;;;;;;;25.76;51.13;101177.69;5072927;28;20051;-58
2022/07/12 05:57:02;;;;;;;2.17;0.40;;;;;;;25.82;51.19;101175.59;5071489;28;20045;-58
2022/07/12 05:59:32;;;;;;;1.00;0.50;;;;;;;25.90;51.05;101175.94;5073796;28;20055;-58
2022/07/12 06:02:00;;;;;;;1.85;0.50;;;;;;;25.97;50.43;101179.88;5071428;28;20052;-58
2022/07/12 06:04:30;;;;;;;7.07;0.70;;;;;;;25.99;50.54;101183.31;5073315;28;20052;-58
2022/07/12 06:07:06;;;;;;;1.95;0.50;;;;;;;25.97;50.37;101174.59;5071229;28;20127;-58
2022/07/12 06:09:36;;;;;;;3.83;0.60;;;;;;;25.99;50.55;101170.03;5073671;28;20053;-58
2022/07/12 06:12:09;;;;;;;2.45;0.70;;;;;;;26.12;50.40;101168.28;5073403;28;20119;-58
2022/07/12 06:14:36;;;;;;;1.55;0.45;;;;;;;26.22;49.93;101169.38;5070968;28;20056;-58
2022/07/12 06:17:08;;;;;;;3.20;0.55;;;;;;;26.35;49.65;101175.59;5072404;28;20432;-58
2022/07/12 06:19:37;;;;;;;1.58;0.80;;;;;;;26.50;49.50;101172.84;5070948;28;20143;-58
2022/07/12 06:22:18;;;;;;;4.35;0.60;;;;;;;26.50;48.80;101168.38;5073357;28;20088;-58
2022/07/12 06:24:45;;;;;;;1.52;0.40;;;;;;;26.54;49.29;101172.56;5071418;28;20059;-58
2022/07/12 06:27:13;;;;;;;2.20;0.60;;;;;;;26.59;48.74;101167.78;5071836;28;20044;-58
2022/07/12 06:29:47;;;;;;;2.20;0.60;;;;;;;26.62;48.57;101172.88;5073308;28;20052;-58
2022/07/12 06:32:18;;;;;;;;;;;;;;;26.71;47.32;101168.75;5073622;28;20362;-58
2022/07/12 06:34:48;;;;;;;7.35;0.60;;;;;;;26.72;48.39;101168.63;5073459;28;19924;-58
2022/07/12 06:37:18;;;;;;;5.68;0.90;;;;;;;26.78;47.77;101172.66;5072663;28;20439;-58
2022/07/12 06:39:47;;;;;;;3.33;1.08;;;;;;;26.85;47.68;101173.94;5072091;28;20048;-58
2022/07/12 06:42:17;;;;;;;2.28;0.63;;;;;;;26.94;47.61;101167.97;5072838;28;20060;-58
2022/07/12 06:44:47;;;;;;;2.85;0.52;;;;;;;27.06;47.33;101165.47;5073137;28;20057;-58
2022/07/12 06:47:17;;;;;;;3.22;0.95;;;;;;;27.24;47.04;101164.16;5072709;28;20105;-58
2022/07/12 06:49:45;;;;;;;3.40;0.93;;;;;;;27.38;46.86;101171.16;5072582;28;20135;-58
2022/07/12 06:52:15;;;;;;;2.10;0.32;;;;;;;27.56;46.28;101165.34;5072762;28;20044;-58
2022/07/12 06:54:44;;;;;;;0.77;0.50;;;;;;;27.81;45.61;101168.94;5072409;28;20396;-57
2022/07/12 06:57:13;;;;;;;4.03;0.40;;;;;;;27.97;45.24;101169.50;5072607;28;20040;-58
2022/07/12 06:59:41;;;;;;;0.70;0.40;;;;;;;28.20;45.09;101171.31;5072707;28;20049;-58
2022/07/12 07:02:17;;;;;;;2.45;0.63;;;;;;;28.42;44.57;101169.69;5072568;28;20048;-58
2022/07/12 07:04:47;;;;;;;2.70;1.08;;;;;;;28.58;44.06;101164.88;5070863;28;20041;-58
2022/07/12 07:07:14;;;;;;;4.30;0.82;;;;;;;28.73;43.79;101169.06;5069363;28;20350;-59
2022/07/12 07:09:55;;;;;;;4.03;0.70;;;;;;;28.81;42.54;101166.63;5072714;28;20060;-58
2022/07/12 07:12:26;;;;;;;2.13;0.50;;;;;;;28.80;43.01;101170.28;5070822;28;20059;-58
2022/07/12 07:14:54;;;;;;;1.75;0.43;;;;;;;28.92;42.72;101178.31;5072715;28;20102;-58
2022/07/12 07:17:25;;;;;;;5.90;0.90;;;;;;;29.01;41.88;101178.44;5072766;28;20044;-59
2022/07/12 07:22:36;;;;;;;2.42;0.30;;;;;;;29.00;41.39;101178.56;5071909;28;20428;-58
2022/07/12 07:25:06;;;;;;;2.58;0.60;;;;;;;29.00;40.91;101170.56;5072733;28;20052;-59
2022/07/12 07:27:38;;;;;;;1.63;0.50;;;;;;;28.93;41.16;101169.34;5069390;28;20048;-58
2022/07/12 07:32:52;;;;;;;0.40;0.30;;;;;;;29.18;40.52;101169.13;5071721;28;20071;-59
2022/07/12 07:35:26;;;;;;;1.45;0.63;;;;;;;29.40;40.23;101166.44;5072074;28;20052;-57
2022/07/12 07:37:57;;;;;;;5.35;0.55;;;;;;;29.63;40.23;101163.72;5075342;28;20449;-59
2022/07/12 07:40:38;;;;;;;7.82;0.70;;;;;;;29.79;39.45;101169.53;5076622;28;20076;-57
2022/07/12 07:43:08;;;;;;;1.17;0.40;;;;;;;29.87;39.45;101171.59;5074681;28;20067;-58
2022/07/12 07:45:36;;;;;;;4.35;0.57;;;;;;;29.80;39.32;101166.75;5076634;28;20054;-59
2022/07/12 07:48:04;;;;;;;3.42;0.50;;;;;;;29.79;38.99;101158.84;5076139;28;20040;-59
2022/07/12 07:50:32;;;;;;;3.20;0.43;;;;;;;29.50;38.91;101175.41;5076236;28;20063;-58
2022/07/12 07:53:02;;;;;;;2.88;0.45;;;;;;;29.16;39.60;101176.41;5076590;28;20055;-58
2022/07/12 07:55:35;;;;;;;1.33;0.38;;;;;;;28.88;39.60;101173.22;5076150;28;20087;-57
2022/07/12 07:58:06;;;;;;;0.50;0.38;;;;;;;28.70;39.79;101169.28;5074446;28;20055;-57
2022/07/12 08:00:35;;;;;;;0.77;0.43;;;;;;;28.58;39.90;101170.22;5076280;28;20075;-57
2022/07/12 08:03:06;;;;;;;1.42;0.47;;;;;;;28.60;39.77;101168.28;5075959;28;20048;-58
2022/07/12 08:05:35;;;;;;;0.55;0.32;;;;;;;28.72;39.56;101167.34;5076109;28;20117;-58
2022/07/12 08:08:05;;;;;;;0.50;0.40;;;;;;;28.93;39.52;101164.00;5076007;28;20041;-58
2022/07/12 08:10:49;;;;;;;2.72;0.50;;;;;;;29.21;38.29;101158.19;5075759;28;20067;-58
2022/07/12 08:13:19;;;;;;;0.40;0.20;;;;;;;29.40;38.51;101169.09;5076065;28;20056;-59
2022/07/12 08:15:47;;;;;;;1.65;0.43;;;;;;;29.65;38.53;101167.13;5076772;28;20052;-59
2022/07/12 08:18:17;;;;;;;1.25;0.43;;;;;;;29.83;38.26;101165.66;5072634;28;20041;-59
2022/07/12 08:20:47;;;;;;;2.78;0.47;;;;;;;29.80;37.61;101160.56;5076241;28;20133;-59
2022/07/12 08:23:16;;;;;;;2.20;0.57;;;;;;;29.84;37.71;101156.66;5075487;28;20060;-58
2022/07/12 08:25:58;;;;;;;1.75;0.40;;;;;;;29.78;36.42;101158.00;5075452;28;20080;-58
2022/07/12 08:28:25;;;;;;;0.90;0.30;;;;;;;29.81;37.31;101154.22;5073780;28;20051;-58
2022/07/12 08:30:53;;;;;;;1.02;0.30;;;;;;;29.98;37.28;101163.53;5075477;28;20056;-59
2022/07/12 08:33:21;;;;;;;7.88;0.80;;;;;;;30.12;36.66;101161.41;5071208;28;20055;-58
2022/07/12 08:38:31;;;;;;;0.38;0.20;;;;;;;29.93;36.75;101155.88;5076627;28;20048;-58
2022/07/12 08:41:07;;;;;;;1.85;0.63;;;;;;;29.84;36.62;101164.66;5073274;28;20048;-59
2022/07/12 08:43:35;;;;;;;0.88;0.40;;;;;;;29.82;36.75;101143.41;5075928;28;20056;-58
2022/07/12 08:46:10;;;;;;;1.40;0.40;;;;;;;29.80;35.76;101155.22;5075838;28;20063;-59
2022/07/12 08:48:46;;;;;;;7.65;1.40;;;;;;;29.66;36.63;101156.34;5073041;28;20131;-58
2022/07/12 08:51:19;;;;;;;1.55;0.40;;;;;;;29.52;36.89;101157.44;5075050;28;20052;-59
2022/07/12 08:53:45;;;;;;;1.30;0.38;;;;;;;29.57;37.08;101156.22;5075392;28;20127;-58
2022/07/12 08:56:38;;;;;;;0.50;0.20;;;;;;;29.74;36.56;101145.03;5075119;28;20369;-59
2022/07/12 08:59:24;;;;;;;0.40;0.30;;;;;;;30.26;35.51;101160.28;5074219;28;20068;-59
2022/07/12 09:01:55;;;;;;;2.03;0.32;;;;;;;30.59;35.55;101150.34;5075016;28;20052;-59
2022/07/12 09:04:33;;;;;;;1.52;0.50;;;;;;;30.67;35.29;101139.88;5073476;28;20057;-60
2022/07/12 09:07:18;;;;;;;0.50;0.28;;;;;;;30.63;34.85;101138.44;5073984;28;20059;-58
2022/07/12 09:09:49;;;;;;;1.58;0.20;;;;;;;30.60;35.02;101155.59;5074299;28;20064;-59
2022/07/12 09:12:27;;;;;;;1.27;0.50;;;;;;;30.55;34.80;101149.75;5071685;28;20048;-59
2022/07/12 09:15:12;;;;;;;2.45;0.30;;;;;;;30.37;35.45;101149.53;5075624;28;20052;-59
2022/07/12 09:20:24;;;;;;;1.42;0.40;;;;;;;30.23;35.04;101146.31;5073511;28;20063;-59
2022/07/12 09:22:58;;;;;;;9.32;0.52;;;;;;;30.20;34.95;101141.25;5075335;28;20068;-59
2022/07/12 09:25:26;;;;;;;5.22;0.50;;;;;;;30.14;35.86;101143.41;5074231;28;20072;-59
2022/07/12 09:28:02;;;;;;;4.25;0.35;;;;;;;30.06;35.67;101143.22;5075346;28;20465;-59
2022/07/12 09:30:31;;;;;;;3.83;0.50;;;;;;;30.00;36.26;101142.84;5075003;28;20389;-59
2022/07/12 09:36:23;;;;;;;4.13;0.50;;;;;;;29.68;35.72;101145.53;5073744;28;20074;-58
2022/07/12 09:38:52;;;;;;;3.13;0.40;;;;;;;29.55;35.96;101134.13;5073173;28;20060;-58
2022/07/12 09:41:22;;;;;;;3.35;0.47;;;;;;;29.51;36.15;101128.19;5064803;28;20044;-59
2022/07/12 09:43:57;;;;;;;4.30;0.50;;;;;;;29.61;36.21;101128.28;5057369;28;20439;-59
2022/07/12 09:46:28;;;;;;;1.27;0.30;;;;;;;29.72;36.22;101123.78;5055296;28;20053;-59
2022/07/12 09:49:03;;;;;;;2.70;0.50;;;;;;;29.84;36.10;101124.59;5063818;28;20131;-59
2022/07/12 09:51:37;;;;;;;1.73;0.35;;;;;;;29.95;35.68;101132.56;5064381;28;20044;-59
2022/07/12 09:54:08;;;;;;;0.68;0.30;;;;;;;30.07;35.66;101128.88;5054479;28;20437;-59
2022/07/12 09:56:39;;;;;;;1.13;0.60;;;;;;;30.07;35.41;101128.88;5065122;28;20048;-59
2022/07/12 09:59:10;;;;;;;3.50;0.43;;;;;;;30.18;35.82;101124.44;5063953;28;20475;-59
2022/07/12 10:01:40;;;;;;;0.80;0.50;;;;;;;30.26;35.77;101113.97;5062199;28;20053;-59
2022/07/12 10:04:09;;;;;;;7.03;0.80;;;;;;;30.33;35.48;101120.50;5065924;28;20049;-59
2022/07/12 10:06:39;;;;;;;0.70;0.35;;;;;;;30.30;35.53;101126.94;5062760;28;20132;-59
2022/07/12 10:09:14;;;;;;;4.95;0.40;;;;;;;30.25;35.34;101122.97;5064272;28;20063;-59
2022/07/12 10:11:42;;;;;;;3.17;0.88;;;;;;;30.13;35.43;101122.16;5063383;28;20096;-59
2022/07/12 10:14:19;;;;;;;2.53;0.47;;;;;;;30.02;34.71;101135.59;5064230;28;20055;-58
2022/07/12 10:16:49;;;;;;;1.60;0.40;;;;;;;29.81;35.55;101135.53;5054399;28;20103;-59
2022/07/12 10:19:29;;;;;;;9.88;0.60;;;;;;;29.58;35.26;101123.19;5066394;28;20128;-59
2022/07/12 10:21:58;;;;;;;3.42;0.60;;;;;;;29.38;35.72;101125.66;5063186;28;20135;-59
2022/07/12 10:25:00;;;;;;;7.10;0.65;;;;;;;29.14;35.32;101141.84;5064405;28;20071;-59
2022/07/12 10:27:34;;;;;;;5.40;0.50;;;;;;;29.08;35.90;101128.09;5054579;28;20454;-59
2022/07/12 10:30:27;;;;;;;5.90;0.80;;;;;;;29.08;35.67;101125.44;5063648;28;20118;-59
2022/07/12 10:33:05;;;;;;;10.55;0.93;;;;;;;29.10;36.32;101123.47;5053356;28;20291;-59
2022/07/12 10:35:41;;;;;;;4.10;0.60;;;;;;;28.99;35.95;101132.34;5053059;28;20109;-58
2022/07/12 10:38:23;;;;;;;2.75;0.50;;;;;;;28.82;35.33;101120.31;5060157;28;20048;-59
2022/07/12 10:41:03;;;;;;;2.88;0.52;;;;;;;28.62;36.27;101134.38;5053187;28;20053;-57
2022/07/12 10:46:31;;;;;;;1.95;0.40;;;;;;;28.45;36.31;101126.81;5060013;28;20049;-58
2022/07/12 10:49:28;;;;;;;3.97;0.73;;;;;;;28.49;35.99;101106.94;5062105;28;20370;-58
2022/07/12 10:52:25;;;;;;;4.78;0.63;;;;;;;28.46;36.23;101117.84;5053676;28;20072;-59
2022/07/12 10:55:22;;;;;;;9.68;1.15;;;;;;;28.41;36.43;101112.00;5012954;28;20053;-59
2022/07/12 10:57:59;;;;;;;8.85;1.35;;;;;;;28.26;36.76;101117.56;5018911;28;20049;-59
2022/07/12 11:00:28;;;;;;;3.92;0.40;;;;;;;28.03;37.26;101105.06;5064259;28;20040;-60
2022/07/12 11:03:02;;;;;;;4.97;0.50;;;;;;;28.03;37.03;101121.06;5064272;28;20064;-59
2022/07/12 11:05:33;;;;;;;3.33;0.50;;;;;;;28.05;37.14;101113.81;5063837;28;20446;-58
2022/07/12 11:08:00;;;;;;;9.82;0.60;;;;;;;28.08;36.89;101110.91;5053298;28;20057;-59
2022/07/12 11:10:28;;;;;;;9.02;0.45;;;;;;;28.07;36.69;101090.56;5053384;28;20358;-59
2022/07/12 11:12:56;;;;;;;1.67;0.40;;;;;;;28.15;36.65;101103.31;5053495;28;20044;-59
2022/07/12 11:15:26;;;;;;;0.98;0.38;;;;;;;28.25;36.33;101110.53;5053531;28;20041;-59
2022/07/12 11:17:56;;;;;;;1.77;0.30;;;;;;;28.36;36.09;101132.84;5053068;28;20053;-59
2022/07/12 11:20:31;;;;;;;7.22;0.63;;;;;;;28.36;35.05;101107.03;5054131;28;20102;-58
2022/07/12 11:23:00;;;;;;;2.38;0.50;;;;;;;28.20;34.82;101115.34;5060772;28;20121;-59
2022/07/12 11:25:39;;;;;;;7.22;0.77;;;;;;;27.93;34.92;101098.75;5064017;28;20052;-58
2022/07/12 11:28:09;;;;;;;6.93;0.77;;;;;;;27.72;35.32;101111.03;5062610;28;20037;-57
2022/07/12 11:30:37;;;;;;;12.48;1.10;;;;;;;27.46;35.52;101105.75;5061141;28;20083;-57
2022/07/12 11:33:07;;;;;;;1.83;0.57;;;;;;;27.26;35.57;101098.38;5062327;28;20048;-58
2022/07/12 11:35:43;;;;;;;0.88;0.40;;;;;;;27.10;36.29;101111.09;5062821;28;20435;-58
2022/07/12 11:38:11;;;;;;;4.90;0.80;;;;;;;27.08;36.44;101105.03;5070945;28;20085;-58
2022/07/12 11:40:41;;;;;;;1.38;0.30;;;;;;;27.10;36.48;101108.44;5060840;28;20140;-58
2022/07/12 11:43:11;;;;;;;3.58;0.57;;;;;;;27.14;36.80;101109.91;5061862;28;20385;-58
2022/07/12 11:48:22;;;;;;;6.65;0.40;;;;;;;27.18;36.64;101104.25;5052739;28;20041;-58
2022/07/12 11:51:08;;;;;;;0.60;0.30;;;;;;;27.15;35.86;101112.44;5053071;28;20172;-58
2022/07/12 11:53:38;;;;;;;1.55;0.40;;;;;;;27.16;36.46;101097.34;5052999;28;20053;-58
2022/07/12 11:56:16;;;;;;;1.35;0.60;;;;;;;27.21;36.52;101076.56;5052498;28;20343;-56
2022/07/12 11:58:43;;;;;;;0.85;0.40;;;;;;;27.17;36.78;101101.69;5053103;28;20110;-59
2022/07/12 12:01:14;;;;;;;2.47;0.52;;;;;;;27.12;36.81;101101.19;5053168;28;20049;-59
2022/07/12 12:03:46;;;;;;;1.65;0.60;;;;;;;27.09;37.18;101096.09;5063712;28;20040;-59
2022/07/12 12:06:16;;;;;;;1.27;0.50;;;;;;;27.04;37.37;101104.38;5063387;28;20053;-58
2022/07/12 12:08:45;;;;;;;2.42;0.57;;;;;;;26.95;37.30;101095.19;5062141;28;20048;-59
2022/07/12 12:11:15;;;;;;;0.75;0.52;;;;;;;26.89;37.33;101092.97;5062616;28;20045;-59
2022/07/12 12:13:43;;;;;;;4.47;0.50;;;;;;;26.89;37.63;101090.31;5052869;28;20072;-59
2022/07/12 12:16:20;;;;;;;5.72;0.55;;;;;;;26.89;38.05;101090.31;5053261;28;20041;-59
2022/07/12 12:18:50;;;;;;;1.20;0.40;;;;;;;26.90;38.18;101092.00;5052170;28;20075;-59